createdAt,value
2019-02-06T00:02:17.046Z,11.20
2019-02-06T00:04:50.033Z,11.27
2019-02-06T00:07:20.099Z,11.10
2019-02-06T00:09:49.791Z,14.00
2019-02-06T00:12:25.560Z,15.47
2019-02-06T00:14:57.677Z,16.63
2019-02-06T00:17:27.582Z,18.23
2019-02-06T00:19:57.524Z,15.50
2019-02-06T00:22:28.258Z,17.30
2019-02-06T00:24:58.252Z,21.50
2019-02-06T00:27:31.285Z,18.83
2019-02-06T00:30:01.762Z,18.87
2019-02-06T00:32:32.107Z,12.10
2019-02-06T00:35:06.300Z,15.80
2019-02-06T00:37:36.684Z,13.80
2019-02-06T00:40:10.836Z,17.70
2019-02-06T00:42:46.833Z,14.97
2019-02-06T00:45:28.099Z,11.70
2019-02-06T00:47:58.277Z,14.60
2019-02-06T00:50:30.900Z,24.67
2019-02-06T00:53:01.529Z,16.10
2019-02-06T00:55:31.975Z,15.63
2019-02-06T00:58:02.847Z,17.27
2019-02-06T01:00:33.885Z,18.57
2019-02-06T01:03:06.314Z,20.97
2019-02-06T01:05:38.679Z,19.83
2019-02-06T01:08:11.651Z,21.30
2019-02-06T01:10:45.316Z,16.17
2019-02-06T01:13:15.542Z,21.53
2019-02-06T01:15:45.672Z,20.87
2019-02-06T01:18:15.764Z,17.83
2019-02-06T01:20:45.810Z,21.90
2019-02-06T01:23:16.852Z,20.97
2019-02-06T01:25:47.264Z,16.43
2019-02-06T01:28:18.150Z,19.97
2019-02-06T01:31:08.415Z,19.83
2019-02-06T01:33:29.957Z,23.53
2019-02-06T01:36:03.500Z,18.90
2019-02-06T01:38:38.931Z,17.80
2019-02-06T01:41:09.839Z,19.97
2019-02-06T01:43:44.442Z,24.63
2019-02-06T01:46:15.368Z,24.77
2019-02-06T01:48:47.565Z,29.83
2019-02-06T01:51:18.450Z,19.30
2019-02-06T01:53:48.339Z,21.67
2019-02-06T01:56:18.673Z,25.23
2019-02-06T01:58:49.047Z,27.37
2019-02-06T02:01:19.822Z,28.17
2019-02-06T02:03:49.705Z,19.77
2019-02-06T02:06:19.890Z,20.00
2019-02-06T02:08:57.469Z,20.57
2019-02-06T02:11:27.355Z,22.30
2019-02-06T02:14:00.497Z,24.17
2019-02-06T02:16:30.441Z,20.70
2019-02-06T02:19:00.488Z,35.90
2019-02-06T02:21:30.356Z,28.40
2019-02-06T02:24:00.291Z,27.00
2019-02-06T02:26:33.958Z,28.20
2019-02-06T02:29:05.494Z,30.37
2019-02-06T02:31:35.884Z,21.20
2019-02-06T02:34:05.771Z,30.10
2019-02-06T02:36:36.725Z,32.40
2019-02-06T02:39:10.106Z,31.47
2019-02-06T02:41:45.869Z,38.63
2019-02-06T02:44:15.771Z,27.43
2019-02-06T02:46:46.684Z,31.53
2019-02-06T02:49:16.652Z,33.10
2019-02-06T02:51:48.860Z,29.63
2019-02-06T02:54:18.700Z,27.07
2019-02-06T02:56:49.763Z,25.10
2019-02-06T02:59:20.448Z,28.97
2019-02-06T03:02:06.610Z,31.83
2019-02-06T03:04:49.130Z,24.47
2019-02-06T03:07:19.416Z,30.33
2019-02-06T03:09:51.105Z,28.63
2019-02-06T03:12:21.255Z,34.17
2019-02-06T03:14:52.938Z,32.13
2019-02-06T03:17:23.317Z,33.97
2019-02-06T03:19:53.143Z,24.77
2019-02-06T03:22:23.126Z,30.50
2019-02-06T03:24:53.604Z,29.17
2019-02-06T03:27:23.455Z,28.30
2019-02-06T03:29:53.510Z,31.90
2019-02-06T03:32:23.903Z,34.03
2019-02-06T03:34:56.753Z,33.53
2019-02-06T03:37:26.671Z,32.33
2019-02-06T03:39:57.115Z,35.73
2019-02-06T03:42:27.584Z,35.33
2019-02-06T03:44:59.774Z,31.20
2019-02-06T03:47:30.092Z,34.03
2019-02-06T03:50:00.304Z,34.40
2019-02-06T03:52:30.616Z,36.33
2019-02-06T03:55:01.423Z,39.90
2019-02-06T03:57:31.429Z,39.97
2019-02-06T04:00:01.871Z,28.87
2019-02-06T04:02:31.890Z,29.17
2019-02-06T04:05:02.497Z,42.87
2019-02-06T04:07:32.818Z,31.27
2019-02-06T04:10:04.616Z,37.00
2019-02-06T04:12:35.319Z,31.47
2019-02-06T04:15:06.740Z,30.97
2019-02-06T04:17:37.490Z,33.73
2019-02-06T04:20:11.256Z,37.70
2019-02-06T04:22:41.418Z,36.37
2019-02-06T04:25:15.550Z,36.03
2019-02-06T04:27:45.714Z,36.27
2019-02-06T04:30:15.979Z,40.57
2019-02-06T04:33:00.125Z,43.93
2019-02-06T04:35:30.173Z,36.83
2019-02-06T04:38:02.101Z,39.83
2019-02-06T04:40:32.832Z,42.40
2019-02-06T04:43:07.306Z,47.90
2019-02-06T04:45:56.688Z,44.57
2019-02-06T04:48:26.831Z,41.07
2019-02-06T04:50:59.711Z,38.00
2019-02-06T04:53:32.737Z,39.83
2019-02-06T04:56:16.719Z,38.10
2019-02-06T04:58:47.998Z,46.47
2019-02-06T05:01:24.148Z,32.33
2019-02-06T05:03:55.625Z,40.63
2019-02-06T05:06:26.063Z,34.40
2019-02-06T05:08:57.294Z,48.20
2019-02-06T05:11:45.355Z,52.13
2019-02-06T05:14:16.575Z,49.07
2019-02-06T05:16:50.324Z,56.20
2019-02-06T05:19:21.456Z,36.53
2019-02-06T05:21:53.810Z,55.37
2019-02-06T05:24:27.053Z,47.67
2019-02-06T05:26:57.405Z,39.47
2019-02-06T05:30:03.422Z,42.53
2019-02-06T05:32:37.604Z,37.27
2019-02-06T05:35:13.695Z,49.90
2019-02-06T05:37:45.104Z,51.43
2019-02-06T05:40:15.012Z,35.20
2019-02-06T05:42:45.443Z,34.20
2019-02-06T05:45:36.687Z,37.97
2019-02-06T05:48:10.060Z,34.93
2019-02-06T05:50:54.945Z,33.07
2019-02-06T05:53:37.774Z,39.07
2019-02-06T05:56:09.844Z,32.90
2019-02-06T05:59:05.615Z,31.07
2019-02-06T06:01:52.701Z,35.70
2019-02-06T06:04:24.056Z,34.40
2019-02-06T06:06:54.465Z,31.97
2019-02-06T06:09:24.880Z,32.80
2019-02-06T06:11:59.195Z,35.63
2019-02-06T06:14:31.958Z,24.40
2019-02-06T06:17:05.772Z,35.40
2019-02-06T06:19:38.481Z,30.80
2019-02-06T06:22:09.205Z,38.90
2019-02-06T06:24:43.313Z,25.00
2019-02-06T06:27:13.984Z,29.87
2019-02-06T06:29:45.359Z,21.97
2019-02-06T06:32:21.534Z,25.13
2019-02-06T06:34:52.502Z,33.90
2019-02-06T06:37:22.408Z,22.83
2019-02-06T06:39:53.419Z,21.33
2019-02-06T06:42:24.369Z,22.27
2019-02-06T06:44:55.041Z,23.40
2019-02-06T06:47:26.159Z,26.50
2019-02-06T06:50:01.196Z,25.10
2019-02-06T06:52:34.329Z,29.27
2019-02-06T06:55:04.662Z,21.70
2019-02-06T06:57:34.714Z,22.77
2019-02-06T07:00:06.703Z,24.70
2019-02-06T07:02:38.867Z,21.40
2019-02-06T07:05:16.320Z,14.57
2019-02-06T07:07:53.967Z,20.20
2019-02-06T07:10:30.955Z,17.33
2019-02-06T07:13:04.268Z,16.37
2019-02-06T07:15:42.511Z,18.63
2019-02-06T07:18:15.390Z,19.53
2019-02-06T07:20:48.342Z,21.40
2019-02-06T07:23:27.511Z,21.20
2019-02-06T07:26:06.189Z,21.40
2019-02-06T07:28:36.191Z,17.90
2019-02-06T07:31:07.536Z,27.60
2019-02-06T07:33:43.715Z,13.37
2019-02-06T07:36:16.273Z,15.77
2019-02-06T07:38:48.234Z,16.00
2019-02-06T07:41:18.676Z,19.73
2019-02-06T07:43:50.746Z,18.23
2019-02-06T07:46:21.324Z,18.80
2019-02-06T07:48:52.899Z,13.47
2019-02-06T07:51:22.664Z,16.33
2019-02-06T07:53:52.535Z,16.57
2019-02-06T07:56:22.436Z,19.80
2019-02-06T07:58:52.230Z,18.73
2019-02-06T08:01:22.032Z,17.17
2019-02-06T08:03:51.855Z,22.97
2019-02-06T08:06:21.621Z,17.13
2019-02-06T08:08:51.380Z,19.47
2019-02-06T08:11:23.300Z,21.10
2019-02-06T08:14:03.452Z,17.30
2019-02-06T08:16:38.385Z,18.83
2019-02-06T08:19:09.782Z,19.27
2019-02-06T08:21:40.136Z,17.10
2019-02-06T08:24:10.319Z,20.13
2019-02-06T08:26:42.341Z,22.17
2019-02-06T08:29:15.366Z,20.30
2019-02-06T08:31:45.041Z,21.73
2019-02-06T08:34:14.759Z,21.97
2019-02-06T08:36:44.672Z,15.70
2019-02-06T08:39:14.448Z,19.80
2019-02-06T08:41:44.536Z,16.90
2019-02-06T08:44:15.727Z,17.70
2019-02-06T08:46:45.428Z,18.40
2019-02-06T08:49:15.153Z,14.17
2019-02-06T08:51:44.909Z,20.93
2019-02-06T08:54:15.456Z,10.87
2019-02-06T08:56:45.508Z,16.70
2019-02-06T08:59:15.966Z,14.23
2019-02-06T09:01:45.624Z,20.37
2019-02-06T09:04:15.557Z,18.13
2019-02-06T09:06:45.593Z,12.07
2019-02-06T09:09:15.576Z,22.03
2019-02-06T09:11:45.679Z,21.27
2019-02-06T09:14:16.531Z,20.13
2019-02-06T09:16:46.314Z,16.23
2019-02-06T09:19:16.388Z,19.70
2019-02-06T09:21:46.129Z,20.10
2019-02-06T09:24:16.945Z,13.03
2019-02-06T09:26:47.051Z,18.37
2019-02-06T09:29:16.901Z,17.20
2019-02-06T09:31:46.695Z,16.77
2019-02-06T09:34:17.088Z,16.17
2019-02-06T09:36:46.768Z,19.80
2019-02-06T09:39:16.512Z,18.13
2019-02-06T09:41:46.696Z,13.57
2019-02-06T09:44:17.869Z,15.57
2019-02-06T09:46:47.799Z,17.77
2019-02-06T09:49:23.723Z,16.03
2019-02-06T09:51:55.570Z,13.97
2019-02-06T09:54:25.258Z,17.97
2019-02-06T09:56:55.000Z,17.47
2019-02-06T09:59:24.667Z,12.53
2019-02-06T10:01:54.967Z,20.47
2019-02-06T10:04:24.992Z,21.33
2019-02-06T10:06:54.637Z,16.67
2019-02-06T10:09:24.787Z,16.10
2019-02-06T10:11:54.453Z,17.30
2019-02-06T10:14:24.132Z,18.10
2019-02-06T10:16:54.228Z,18.50
2019-02-06T10:19:24.196Z,10.47
2019-02-06T10:21:55.441Z,17.70
2019-02-06T10:24:26.074Z,14.90
2019-02-06T10:26:56.224Z,20.73
2019-02-06T10:29:26.695Z,15.43
2019-02-06T10:31:57.806Z,14.63
2019-02-06T10:34:28.428Z,18.10
2019-02-06T10:36:59.076Z,14.83
2019-02-06T10:39:34.743Z,19.70
2019-02-06T10:42:02.683Z,13.00
2019-02-06T10:44:32.908Z,16.77
2019-02-06T10:47:02.596Z,16.57
2019-02-06T10:49:32.355Z,18.53
2019-02-06T10:52:06.529Z,15.67
2019-02-06T10:54:36.298Z,15.83
2019-02-06T10:57:06.219Z,25.17
2019-02-06T10:59:35.942Z,17.97
2019-02-06T11:02:06.039Z,17.50
2019-02-06T11:04:37.961Z,17.00
2019-02-06T11:07:08.745Z,16.30
2019-02-06T11:09:46.094Z,16.07
2019-02-06T11:12:12.788Z,15.77
2019-02-06T11:14:42.695Z,16.77
2019-02-06T11:17:12.458Z,21.30
2019-02-06T11:19:43.215Z,16.40
2019-02-06T11:22:13.053Z,21.13
2019-02-06T11:24:43.889Z,19.20
2019-02-06T11:27:13.734Z,17.37
2019-02-06T11:29:48.512Z,16.23
2019-02-06T11:32:18.424Z,13.37
2019-02-06T11:34:48.688Z,17.07
2019-02-06T11:37:21.065Z,14.40
2019-02-06T11:39:58.166Z,11.87
2019-02-06T11:42:22.454Z,15.83
2019-02-06T11:44:53.532Z,13.97
2019-02-06T11:47:23.427Z,14.17
2019-02-06T11:49:55.443Z,13.10
2019-02-06T11:52:25.425Z,18.90
2019-02-06T11:54:55.151Z,11.90
2019-02-06T11:57:24.900Z,23.50
2019-02-06T11:59:55.800Z,15.43
2019-02-06T12:02:36.706Z,16.13
2019-02-06T12:04:58.430Z,12.67
2019-02-06T12:07:29.046Z,12.07
2019-02-06T12:10:09.402Z,12.33
2019-02-06T12:12:31.067Z,15.30
2019-02-06T12:15:01.038Z,13.27
2019-02-06T12:17:30.644Z,12.70
2019-02-06T12:20:03.722Z,14.53
2019-02-06T12:22:33.394Z,11.33
2019-02-06T12:25:03.104Z,12.80
2019-02-06T12:27:32.865Z,10.63
2019-02-06T12:30:02.620Z,17.20
2019-02-06T12:32:33.561Z,17.67
2019-02-06T12:35:03.864Z,13.50
2019-02-06T12:37:34.012Z,17.27
2019-02-06T12:40:04.111Z,16.23
2019-02-06T12:42:34.499Z,12.33
2019-02-06T12:45:04.265Z,14.93
2019-02-06T12:47:33.896Z,13.30
2019-02-06T12:50:06.194Z,7.60
2019-02-06T12:52:36.155Z,12.47
2019-02-06T12:55:08.260Z,12.03
2019-02-06T12:57:38.506Z,11.53
2019-02-06T13:00:13.060Z,14.00
2019-02-06T13:02:43.306Z,12.80
2019-02-06T13:05:13.794Z,16.90
2019-02-06T13:07:44.596Z,17.00
2019-02-06T13:10:17.437Z,14.10
2019-02-06T13:12:47.568Z,12.07
2019-02-06T13:15:17.854Z,14.87
2019-02-06T13:17:48.312Z,12.97
2019-02-06T13:20:30.514Z,10.80
2019-02-06T13:23:01.017Z,13.73
2019-02-06T13:25:33.026Z,7.27
2019-02-06T13:28:03.575Z,12.40
2019-02-06T13:30:36.630Z,16.97
2019-02-06T13:33:11.565Z,10.10
2019-02-06T13:35:45.885Z,9.60
2019-02-06T13:38:15.817Z,15.93
2019-02-06T13:40:46.200Z,9.07
2019-02-06T13:43:17.138Z,10.77
2019-02-06T13:45:48.089Z,13.97
2019-02-06T13:48:24.032Z,12.40
2019-02-06T13:50:53.788Z,14.10
2019-02-06T13:53:23.626Z,8.63
2019-02-06T13:55:53.516Z,9.83
2019-02-06T13:58:23.612Z,12.07
2019-02-06T14:00:53.701Z,8.47
2019-02-06T14:03:23.858Z,7.87
2019-02-06T14:05:54.152Z,7.83
2019-02-06T14:08:23.803Z,10.80
2019-02-06T14:11:00.352Z,10.37
2019-02-06T14:13:25.561Z,9.70
2019-02-06T14:15:55.447Z,13.07
2019-02-06T14:18:25.147Z,12.57
2019-02-06T14:20:55.284Z,11.07
2019-02-06T14:24:27.664Z,7.53
2019-02-06T14:27:37.374Z,8.53
2019-02-06T14:30:43.793Z,11.27
2019-02-06T14:33:52.672Z,11.00
2019-02-06T14:37:17.947Z,10.07
2019-02-06T14:39:54.425Z,14.23
2019-02-06T14:43:04.660Z,15.00
2019-02-06T14:46:12.507Z,9.87
2019-02-06T14:49:23.236Z,8.43
2019-02-06T14:52:22.671Z,10.03
2019-02-06T14:55:14.825Z,11.23
2019-02-06T14:58:18.093Z,12.50
2019-02-06T15:01:33.767Z,8.97
2019-02-06T15:04:42.444Z,9.50
2019-02-06T15:07:50.850Z,12.07
2019-02-06T15:11:20.039Z,10.17
2019-02-06T15:14:36.821Z,13.23
2019-02-06T15:17:53.148Z,9.87
2019-02-06T15:21:01.513Z,13.23
2019-02-06T15:23:43.149Z,11.97
2019-02-06T15:26:52.263Z,19.80
2019-02-06T15:30:12.047Z,15.20
2019-02-06T15:33:43.861Z,11.27
2019-02-06T15:36:34.073Z,12.90
2019-02-06T15:39:24.220Z,12.67
2019-02-06T15:42:29.481Z,11.50
2019-02-06T15:45:41.372Z,14.50
2019-02-06T15:48:20.988Z,11.03
2019-02-06T15:51:40.661Z,13.37
2019-02-06T15:54:38.739Z,9.67
2019-02-06T15:57:55.151Z,17.63
2019-02-06T16:01:08.844Z,7.73
2019-02-06T16:04:22.491Z,14.43
2019-02-06T16:07:29.857Z,18.20
2019-02-06T16:10:51.825Z,13.60
2019-02-06T16:13:44.936Z,13.73
2019-02-06T16:17:19.994Z,13.40
2019-02-06T16:20:29.684Z,15.30
2019-02-06T16:23:22.661Z,15.67
2019-02-06T16:26:48.095Z,16.53
2019-02-06T16:30:00.273Z,15.80
2019-02-06T16:33:11.334Z,10.53
2019-02-06T16:36:19.126Z,12.23
2019-02-06T16:39:10.435Z,15.00
2019-02-06T16:42:31.225Z,10.93
2019-02-06T16:45:37.385Z,10.13
2019-02-06T16:48:33.720Z,12.47
2019-02-06T16:51:16.863Z,7.73
2019-02-06T16:54:21.732Z,9.77
2019-02-06T16:57:40.374Z,19.07
2019-02-06T17:01:06.622Z,13.73
2019-02-06T17:04:09.913Z,16.53
2019-02-06T17:07:16.438Z,13.27
2019-02-06T17:10:10.119Z,18.87
2019-02-06T17:13:05.881Z,15.53
2019-02-06T17:16:02.735Z,11.93
2019-02-06T17:19:19.765Z,15.47
2019-02-06T17:22:29.916Z,12.33
2019-02-06T17:25:48.391Z,13.40
2019-02-06T17:28:58.139Z,16.07
2019-02-06T17:31:47.418Z,18.90
2019-02-06T17:34:44.586Z,16.80
2019-02-06T17:37:38.559Z,15.60
2019-02-06T17:40:34.794Z,14.70
2019-02-06T17:43:48.610Z,16.47
2019-02-06T17:46:43.237Z,14.57
2019-02-06T17:49:53.974Z,18.20
2019-02-06T17:53:00.097Z,21.77
2019-02-06T17:55:31.635Z,15.17
2019-02-06T17:58:03.878Z,18.83
2019-02-06T18:01:03.174Z,21.77
2019-02-06T18:03:37.998Z,14.37
2019-02-06T18:06:08.095Z,18.60
2019-02-06T18:08:41.382Z,17.23
2019-02-06T18:11:13.410Z,14.87
2019-02-06T18:13:45.656Z,15.60
2019-02-06T18:16:21.400Z,17.70
2019-02-06T18:18:47.456Z,15.60
2019-02-06T18:21:17.268Z,22.40
2019-02-06T18:23:47.978Z,23.53
2019-02-06T18:26:18.180Z,20.27
2019-02-06T18:28:49.586Z,14.03
2019-02-06T18:31:24.736Z,15.83
2019-02-06T18:33:55.702Z,22.77
2019-02-06T18:36:27.867Z,21.57
2019-02-06T18:38:58.091Z,19.43
2019-02-06T18:41:28.800Z,20.73
2019-02-06T18:43:58.805Z,16.20
2019-02-06T18:46:29.341Z,17.73
2019-02-06T18:49:04.622Z,18.20
2019-02-06T18:51:34.720Z,18.93
2019-02-06T18:54:07.978Z,21.30
2019-02-06T18:56:38.450Z,17.00
2019-02-06T18:59:09.889Z,16.47
2019-02-06T19:01:40.733Z,19.13
2019-02-06T19:04:14.744Z,26.13
2019-02-06T19:06:45.157Z,26.70
2019-02-06T19:09:17.331Z,26.00
2019-02-06T19:11:47.749Z,21.13
2019-02-06T19:14:19.245Z,25.23
2019-02-06T19:16:49.461Z,26.63
2019-02-06T19:19:25.508Z,21.60
2019-02-06T19:21:53.044Z,21.77
2019-02-06T19:24:23.839Z,12.43
2019-02-06T19:26:53.625Z,15.40
2019-02-06T19:29:23.923Z,17.17
2019-02-06T19:31:53.613Z,16.23
2019-02-06T19:34:23.316Z,13.80
2019-02-06T19:36:54.258Z,15.13
2019-02-06T19:39:24.200Z,19.37
2019-02-06T19:41:54.446Z,16.37
2019-02-06T19:44:25.281Z,18.13
2019-02-06T19:46:56.897Z,15.97
2019-02-06T19:49:29.431Z,21.17
2019-02-06T19:51:59.122Z,18.30
2019-02-06T19:54:30.241Z,17.23
2019-02-06T19:57:00.620Z,21.53
2019-02-06T19:59:31.154Z,17.70
2019-02-06T20:02:01.624Z,19.93
2019-02-06T20:04:32.790Z,23.97
2019-02-06T20:07:02.900Z,22.47
2019-02-06T20:09:34.556Z,24.60
2019-02-06T20:12:05.102Z,19.17
2019-02-06T20:14:35.183Z,21.47
2019-02-06T20:17:05.924Z,20.27
2019-02-06T20:19:35.925Z,20.20
2019-02-06T20:22:06.008Z,16.03
2019-02-06T20:24:36.484Z,15.87
2019-02-06T20:27:06.732Z,13.77
2019-02-06T20:29:36.792Z,17.97
2019-02-06T20:32:09.032Z,21.00
2019-02-06T20:34:39.373Z,21.40
2019-02-06T20:37:09.522Z,20.00
2019-02-06T20:39:40.053Z,19.57
2019-02-06T20:42:10.232Z,22.70
2019-02-06T20:44:41.549Z,25.30
2019-02-06T20:47:14.264Z,17.27
2019-02-06T20:49:53.258Z,16.03
2019-02-06T20:52:39.051Z,20.27
2019-02-06T20:55:11.776Z,20.33
2019-02-06T20:57:45.472Z,19.20
2019-02-06T21:00:26.314Z,20.27
2019-02-06T21:03:00.229Z,19.97
2019-02-06T21:05:31.571Z,20.70
2019-02-06T21:08:20.696Z,19.90
2019-02-06T21:10:53.289Z,22.27
2019-02-06T21:13:33.436Z,15.80
2019-02-06T21:16:34.814Z,14.13
2019-02-06T21:19:05.080Z,12.87
2019-02-06T21:21:35.451Z,17.07
2019-02-06T21:24:07.612Z,16.17
2019-02-06T21:26:39.048Z,17.80
2019-02-06T21:29:10.329Z,30.80
2019-02-06T21:31:41.708Z,26.23
2019-02-06T21:34:12.367Z,20.93
2019-02-06T21:36:43.877Z,9.90
2019-02-06T21:39:15.191Z,6.63
2019-02-06T21:41:48.217Z,5.87
2019-02-06T21:44:21.207Z,6.87
2019-02-06T21:46:54.149Z,5.70
2019-02-06T21:49:26.497Z,3.80
2019-02-06T21:52:01.933Z,3.93
2019-02-06T21:54:32.361Z,2.80
2019-02-06T21:57:02.862Z,5.13
2019-02-06T21:59:33.265Z,2.33
2019-02-06T22:02:03.216Z,2.53
2019-02-06T22:04:41.659Z,4.73
2019-02-06T22:07:11.578Z,5.67
2019-02-06T22:09:42.459Z,3.93
2019-02-06T22:12:14.318Z,4.20
2019-02-06T22:14:45.411Z,4.27
2019-02-06T22:17:16.275Z,4.33
2019-02-06T22:19:46.897Z,3.87
2019-02-06T22:22:17.123Z,4.50
2019-02-06T22:24:49.741Z,4.97
2019-02-06T22:27:23.429Z,4.20
2019-02-06T22:29:55.804Z,4.23
2019-02-06T22:32:29.533Z,4.40
2019-02-06T22:35:01.888Z,4.60
2019-02-06T22:37:34.369Z,5.90
2019-02-06T22:40:10.201Z,6.97
2019-02-06T22:42:43.170Z,6.43
2019-02-06T22:45:21.133Z,5.30
2019-02-06T22:47:51.838Z,4.30
2019-02-06T22:50:24.898Z,5.13
2019-02-06T22:52:55.322Z,4.30
2019-02-06T22:55:25.601Z,3.37
2019-02-06T22:57:55.718Z,3.33
2019-02-06T23:01:12.719Z,3.10
2019-02-06T23:03:48.122Z,2.70
2019-02-06T23:06:20.375Z,2.77
2019-02-06T23:08:51.482Z,2.00
2019-02-06T23:11:26.962Z,2.50
2019-02-06T23:13:57.099Z,1.23
2019-02-06T23:16:28.972Z,1.50
2019-02-06T23:19:00.338Z,1.30
2019-02-06T23:21:31.178Z,1.60
2019-02-06T23:24:02.677Z,1.67
2019-02-06T23:26:33.466Z,2.13
2019-02-06T23:29:06.265Z,2.47
2019-02-06T23:31:36.850Z,4.90
2019-02-06T23:34:07.936Z,5.60
2019-02-06T23:36:38.378Z,2.93
2019-02-06T23:39:22.878Z,2.20
2019-02-06T23:41:56.366Z,5.03
2019-02-06T23:44:29.091Z,4.10
2019-02-06T23:46:59.293Z,6.47
2019-02-06T23:49:31.898Z,5.83
2019-02-06T23:52:02.330Z,8.23
2019-02-06T23:54:32.899Z,6.03
2019-02-06T23:57:03.488Z,10.00
2019-02-06T23:59:34.918Z,11.87
